Bei Facebook empfehlenBei Twitter postenGoogle plusPinterest

Das Wetter im Erzgebirge am 24.06.2017

Wetter und Klima am 24.06.2017 Holzhau im Erzgebirge (630m ü.NN)
Letzte gemessene Temperatur und Uhrzeit der Messung23:45:00 Uhr11.30 °C
Temperatur (Maximum / Höchstwert) und Uhrzeit der Messung15:15:00 Uhr26.40 °C
Temperatur (Minimum / Tiefstwert) und Uhrzeit der Messung23:45:0011.30 °C
Errechneter Absolutwert der Temperaturschwankungen zwischen Tmin und Tmax des Tages15.10 K
Errechnete Tagesmitteltemperatur21.69783 °C
Gesamt - Niederschlag des Tages (in flüssiger Form)0.00 Liter / m²
Luftdruck (Maximum / Höchstwert) und Zeitpunkt der Messung23:45:00 Uhr1011.90 hPa
Luftdruck (Minimum / Tiefstwert) und Zeitpunkt der Messung18:30:00 Uhr1010.60 hPa
Errechneter Absolutwert der Luftdruckschwankungen des Tages1.30 hPa
Höchste gemessene Windgeschwindigkeit und Uhrzeit der Messung12:30:00 Uhr53.28 km/h
Errechnete Windhäufigkeit in Relation zu den Messwerten des Tages28.26087 %
Niedrigste Windkühle (Windchill) und Zeitpunkt der Messung23:45:00 Uhr11.30 °C
Taupunkt (Maximum / Höchstwert) und Uhrzeit der Messung14:15:00 Uhr13.60 °C
Taupunkt (Minimum / Tiefstwert) und Uhrzeit der Messung23:45:008.20 °C
Anzahl der automatisch eingelesenen Messwerte 46

Detaillierte Wetter- und Klima- Messwerte für den 24.06.2017 in Holzhau im Erzgebirge (630m ü.NN)
ZeitTemperaturLuftdruckRel. LuftfeuchteWindWindrichtungWindchillTaupunktNiederschlag l/m²
23:45:0011.30 °C1011.90 hPa81.00 %8.20 °C 
23:30:0011.50 °C1011.80 hPa80.00 %8.20 °C 
23:15:0011.90 °C1011.80 hPa78.00 %8.20 °C 
23:00:0012.40 °C1011.90 hPa77.00 %8.50 °C 
22:45:0013.00 °C1011.80 hPa75.00 %8.70 °C 
22:30:0013.80 °C1011.70 hPa74.00 %9.30 °C 
22:15:0014.30 °C1011.60 hPa71.00 %9.10 °C 
22:00:0015.10 °C1011.50 hPa70.00 %9.70 °C 
21:45:0015.50 °C1011.40 hPa69.00 %9.80 °C 
21:30:0016.00 °C1011.40 hPa67.00 %9.90 °C 
21:15:0016.70 °C1011.30 hPa65.00 %10.10 °C 
21:00:0017.50 °C1011.20 hPa64.00 %10.60 °C 
20:45:0018.50 °C1011.10 hPa62.00 %11.10 °C 
20:30:0019.30 °C1011.20 hPa62.00 %11.80 °C 
20:15:0019.90 °C1010.90 hPa60.00 %11.90 °C 
20:00:0020.80 °C1011.00 hPa57.00 %12.00 °C 
19:45:0022.10 °C1010.80 hPa51.00 %1.44 km/hNW22.10 °C11.50 °C 
19:30:0022.60 °C1010.80 hPa47.00 %18.00 km/hSW24.00 °C10.70 °C 
19:15:0022.80 °C1010.70 hPa46.00 %10.60 °C 
19:00:0023.10 °C1010.80 hPa46.00 %9.00 km/hNW23.10 °C10.90 °C 
18:45:0023.40 °C1010.80 hPa44.00 %3.96 km/hWNW23.40 °C10.50 °C 
18:30:0023.90 °C1010.60 hPa45.00 %10.44 km/hNNW23.90 °C11.20 °C 
18:15:0024.40 °C1010.60 hPa45.00 %11.70 °C 
18:00:0024.80 °C1010.70 hPa44.00 %11.70 °C 
17:45:0025.20 °C1010.80 hPa44.00 %12.10 °C 
17:30:0025.30 °C1010.60 hPa44.00 %12.20 °C 
17:15:0025.60 °C1010.80 hPa43.00 %2.52 km/hWNW25.60 °C12.10 °C 
17:00:0025.80 °C1010.90 hPa43.00 %12.30 °C 
16:45:0025.90 °C1011.10 hPa42.00 %12.00 °C 
16:30:0025.90 °C1011.10 hPa42.00 %12.00 °C 
16:15:0026.20 °C1011.20 hPa43.00 %12.60 °C 
16:00:0026.20 °C1011.20 hPa43.00 %12.60 °C 
15:45:0026.10 °C1011.10 hPa44.00 %1.44 km/hW26.10 °C12.90 °C 
15:30:0026.30 °C1011.20 hPa42.00 %19.44 km/hWNW28.20 °C12.40 °C 
15:15:0026.40 °C1011.10 hPa44.00 %13.20 °C 
15:00:0026.10 °C1011.20 hPa45.00 %13.20 °C 
14:45:0026.10 °C1011.20 hPa44.00 %5.04 km/hNW26.10 °C12.90 °C 
14:30:0026.20 °C1011.10 hPa43.00 %12.60 °C 
14:15:0026.10 °C1011.20 hPa46.00 %13.60 °C 
14:00:0025.90 °C1011.30 hPa45.00 %40.32 km/hNNW27.60 °C13.10 °C 
13:45:0025.60 °C1011.20 hPa47.00 %12.96 km/hNW25.60 °C13.50 °C 
13:30:0025.30 °C1011.30 hPa46.00 %12.90 °C 
13:15:0024.90 °C1011.30 hPa47.00 %12.80 °C 
13:00:0024.60 °C1011.40 hPa49.00 %13.20 °C 
12:45:0024.10 °C1011.30 hPa49.00 %23.40 km/hNNW25.70 °C12.70 °C 
12:30:0023.70 °C1011.30 hPa51.00 %53.28 km/hNW24.80 °C13.00 °C 

Permanenter Link zu dieser Seite: Wetter im Erzgebirge am 24.06.2017
Performance-Info: Die Erstellung der Seite / Statistik(en) / Tabelle(n) erforderte 5 Datenbankserver-Abfrage(n) und dauerte 107 Millisekunden. (Dieser Messwert ist von der Gesamt-Auslastung des Servers abhängig.)
Erzgebirge - Wetter | Erzgebirge - Wetter (Mobilgeräte) | Komplette Klimadatenbank